sensor_id;sensor_type;location;lat;lon;timestamp;pressure;altitude;pressure_sealevel;temperature;humidity
68107;BME280;54892;47.488;19.026;2023-08-07T00:00:54;99181.81;;;16.84;68.69
68107;BME280;54892;47.488;19.026;2023-08-07T00:03:57;99182.00;;;16.79;68.74
68107;BME280;54892;47.488;19.026;2023-08-07T00:07:01;99176.03;;;16.82;68.68
68107;BME280;54892;47.488;19.026;2023-08-07T00:10:05;99168.03;;;16.82;68.70
68107;BME280;54892;47.488;19.026;2023-08-07T00:13:10;99173.09;;;16.75;69.33
68107;BME280;54892;47.488;19.026;2023-08-07T00:16:13;99159.91;;;16.79;69.27
68107;BME280;54892;47.488;19.026;2023-08-07T00:19:16;99163.03;;;16.81;69.59
68107;BME280;54892;47.488;19.026;2023-08-07T00:22:20;99160.22;;;16.77;69.34
68107;BME280;54892;47.488;19.026;2023-08-07T00:25:23;99161.94;;;16.73;69.90
68107;BME280;54892;47.488;19.026;2023-08-07T00:28:28;99157.09;;;16.75;69.91
68107;BME280;54892;47.488;19.026;2023-08-07T00:31:31;99165.09;;;16.66;70.01
68107;BME280;54892;47.488;19.026;2023-08-07T00:34:34;99166.06;;;16.62;70.72
68107;BME280;54892;47.488;19.026;2023-08-07T00:37:38;99169.00;;;16.69;69.95
68107;BME280;54892;47.488;19.026;2023-08-07T00:40:41;99166.81;;;16.71;70.31
68107;BME280;54892;47.488;19.026;2023-08-07T00:43:46;99160.38;;;16.72;70.05
68107;BME280;54892;47.488;19.026;2023-08-07T00:46:49;99168.09;;;16.65;69.84
68107;BME280;54892;47.488;19.026;2023-08-07T00:49:53;99171.19;;;16.67;69.23
68107;BME280;54892;47.488;19.026;2023-08-07T00:52:57;99170.28;;;16.63;69.42
68107;BME280;54892;47.488;19.026;2023-08-07T00:56:00;99172.78;;;16.59;69.68
68107;BME280;54892;47.488;19.026;2023-08-07T00:59:06;99170.91;;;16.59;69.70
68107;BME280;54892;47.488;19.026;2023-08-07T01:02:10;99174.03;;;16.62;69.68
68107;BME280;54892;47.488;19.026;2023-08-07T01:05:15;99162.44;;;16.57;69.96
68107;BME280;54892;47.488;19.026;2023-08-07T01:08:18;99173.91;;;16.58;69.41
68107;BME280;54892;47.488;19.026;2023-08-07T01:11:30;99173.44;;;16.56;69.31
68107;BME280;54892;47.488;19.026;2023-08-07T01:14:47;99168.25;;;16.51;69.38
68107;BME280;54892;47.488;19.026;2023-08-07T01:17:54;99172.00;;;16.50;69.60
68107;BME280;54892;47.488;19.026;2023-08-07T01:20:58;99172.47;;;16.52;69.80
68107;BME280;54892;47.488;19.026;2023-08-07T01:24:03;99170.91;;;16.51;68.89
68107;BME280;54892;47.488;19.026;2023-08-07T01:27:20;99174.66;;;16.58;69.09
68107;BME280;54892;47.488;19.026;2023-08-07T01:30:31;99178.28;;;16.54;69.14
68107;BME280;54892;47.488;19.026;2023-08-07T01:33:42;99186.75;;;16.56;69.18
68107;BME280;54892;47.488;19.026;2023-08-07T01:36:47;99186.91;;;16.59;69.03
68107;BME280;54892;47.488;19.026;2023-08-07T01:39:53;99198.97;;;16.57;68.41
68107;BME280;54892;47.488;19.026;2023-08-07T01:42:57;99185.66;;;16.48;68.88
68107;BME280;54892;47.488;19.026;2023-08-07T01:46:01;99191.59;;;16.54;68.64
68107;BME280;54892;47.488;19.026;2023-08-07T01:49:04;99195.38;;;16.53;68.61
68107;BME280;54892;47.488;19.026;2023-08-07T01:52:09;99208.97;;;16.51;68.15
68107;BME280;54892;47.488;19.026;2023-08-07T01:55:14;99195.66;;;16.51;67.41
68107;BME280;54892;47.488;19.026;2023-08-07T01:58:18;99195.03;;;16.54;67.37
68107;BME280;54892;47.488;19.026;2023-08-07T02:01:21;99199.25;;;16.64;67.10
68107;BME280;54892;47.488;19.026;2023-08-07T02:04:25;99202.56;;;16.52;67.12
68107;BME280;54892;47.488;19.026;2023-08-07T02:07:28;99200.53;;;16.49;67.50
68107;BME280;54892;47.488;19.026;2023-08-07T02:10:33;99212.44;;;16.52;67.32
68107;BME280;54892;47.488;19.026;2023-08-07T02:13:37;99200.69;;;16.53;66.85
68107;BME280;54892;47.488;19.026;2023-08-07T02:16:40;99200.84;;;16.56;66.95
68107;BME280;54892;47.488;19.026;2023-08-07T02:19:43;99206.50;;;16.55;66.95
68107;BME280;54892;47.488;19.026;2023-08-07T02:22:48;99194.88;;;16.51;67.06
68107;BME280;54892;47.488;19.026;2023-08-07T02:25:53;99202.13;;;16.50;66.86
68107;BME280;54892;47.488;19.026;2023-08-07T02:28:56;99192.22;;;16.42;67.11
68107;BME280;54892;47.488;19.026;2023-08-07T02:32:01;99195.38;;;16.35;66.79
68107;BME280;54892;47.488;19.026;2023-08-07T02:35:05;99201.16;;;16.37;66.94
68107;BME280;54892;47.488;19.026;2023-08-07T02:38:08;99191.91;;;16.43;67.04
68107;BME280;54892;47.488;19.026;2023-08-07T02:41:13;99187.69;;;16.34;66.46
68107;BME280;54892;47.488;19.026;2023-08-07T02:44:16;99184.84;;;16.30;67.30
68107;BME280;54892;47.488;19.026;2023-08-07T02:47:20;99187.22;;;16.32;67.23
68107;BME280;54892;47.488;19.026;2023-08-07T02:50:24;99180.47;;;16.34;66.55
68107;BME280;54892;47.488;19.026;2023-08-07T02:53:29;99182.19;;;16.39;66.39
68107;BME280;54892;47.488;19.026;2023-08-07T02:56:33;99188.16;;;16.36;66.16
68107;BME280;54892;47.488;19.026;2023-08-07T02:59:37;99193.78;;;16.34;65.76
68107;BME280;54892;47.488;19.026;2023-08-07T03:02:40;99191.59;;;16.36;65.64
68107;BME280;54892;47.488;19.026;2023-08-07T03:05:48;99197.56;;;16.33;65.64
68107;BME280;54892;47.488;19.026;2023-08-07T03:08:51;99202.59;;;16.35;65.34
68107;BME280;54892;47.488;19.026;2023-08-07T03:11:56;99200.06;;;16.29;65.99
68107;BME280;54892;47.488;19.026;2023-08-07T03:15:05;99201.94;;;16.29;65.77
68107;BME280;54892;47.488;19.026;2023-08-07T03:18:09;99200.22;;;16.33;65.34
68107;BME280;54892;47.488;19.026;2023-08-07T03:21:12;99211.34;;;16.26;65.69
68107;BME280;54892;47.488;19.026;2023-08-07T03:24:15;99208.19;;;16.24;65.65
68107;BME280;54892;47.488;19.026;2023-08-07T03:27:20;99211.94;;;16.23;65.48
68107;BME280;54892;47.488;19.026;2023-08-07T03:30:24;99221.97;;;16.18;65.84
68107;BME280;54892;47.488;19.026;2023-08-07T03:33:27;99229.81;;;16.23;65.78
68107;BME280;54892;47.488;19.026;2023-08-07T03:36:30;99216.50;;;16.23;65.71
68107;BME280;54892;47.488;19.026;2023-08-07T03:39:34;99213.22;;;16.17;66.18
68107;BME280;54892;47.488;19.026;2023-08-07T03:42:39;99212.41;;;16.17;65.96
68107;BME280;54892;47.488;19.026;2023-08-07T03:45:43;99211.19;;;16.14;66.08
68107;BME280;54892;47.488;19.026;2023-08-07T03:48:46;99210.38;;;16.13;65.97
68107;BME280;54892;47.488;19.026;2023-08-07T03:51:50;99223.53;;;16.10;65.73
68107;BME280;54892;47.488;19.026;2023-08-07T03:54:53;99227.28;;;16.09;65.97
68107;BME280;54892;47.488;19.026;2023-08-07T03:57:57;99227.31;;;16.18;65.86
68107;BME280;54892;47.488;19.026;2023-08-07T04:01:01;99231.84;;;16.08;65.74
68107;BME280;54892;47.488;19.026;2023-08-07T04:04:04;99240.59;;;16.09;65.63
68107;BME280;54892;47.488;19.026;2023-08-07T04:07:08;99238.41;;;16.11;65.51
68107;BME280;54892;47.488;19.026;2023-08-07T04:10:12;99242.03;;;16.15;65.18
68107;BME280;54892;47.488;19.026;2023-08-07T04:13:16;99244.81;;;16.10;65.61
68107;BME280;54892;47.488;19.026;2023-08-07T04:16:20;99250.28;;;16.05;65.77
68107;BME280;54892;47.488;19.026;2023-08-07T04:19:24;99252.50;;;16.03;66.08
68107;BME280;54892;47.488;19.026;2023-08-07T04:22:27;99250.59;;;16.03;65.80
68107;BME280;54892;47.488;19.026;2023-08-07T04:25:30;99250.59;;;16.03;65.83
68107;BME280;54892;47.488;19.026;2023-08-07T04:28:35;99242.94;;;16.02;65.48
68107;BME280;54892;47.488;19.026;2023-08-07T04:31:38;99245.59;;;16.02;65.34
68107;BME280;54892;47.488;19.026;2023-08-07T04:34:41;99256.72;;;16.04;65.70
68107;BME280;54892;47.488;19.026;2023-08-07T04:37:44;99255.00;;;16.08;66.01
68107;BME280;54892;47.488;19.026;2023-08-07T04:40:48;99257.66;;;16.08;65.13
68107;BME280;54892;47.488;19.026;2023-08-07T04:43:54;99252.53;;;16.11;65.20
68107;BME280;54892;47.488;19.026;2023-08-07T04:46:57;99258.97;;;16.19;65.10
68107;BME280;54892;47.488;19.026;2023-08-07T04:50:00;99243.44;;;16.21;65.21
68107;BME280;54892;47.488;19.026;2023-08-07T04:53:04;99250.19;;;16.27;64.78
68107;BME280;54892;47.488;19.026;2023-08-07T04:56:08;99239.53;;;16.27;64.60
68107;BME280;54892;47.488;19.026;2023-08-07T04:59:12;99249.41;;;16.44;63.61
68107;BME280;54892;47.488;19.026;2023-08-07T05:02:15;99240.31;;;16.37;63.90
68107;BME280;54892;47.488;19.026;2023-08-07T05:05:19;99245.63;;;16.37;63.72
68107;BME280;54892;47.488;19.026;2023-08-07T05:08:22;99239.87;;;16.35;63.51
68107;BME280;54892;47.488;19.026;2023-08-07T05:11:26;99248.63;;;16.44;62.99
68107;BME280;54892;47.488;19.026;2023-08-07T05:14:32;99237.66;;;16.37;63.30
68107;BME280;54892;47.488;19.026;2023-08-07T05:17:35;99235.94;;;16.50;62.98
68107;BME280;54892;47.488;19.026;2023-08-07T05:20:38;99236.09;;;16.53;62.72
68107;BME280;54892;47.488;19.026;2023-08-07T05:23:41;99251.78;;;16.81;61.75
68107;BME280;54892;47.488;19.026;2023-08-07T05:26:44;99255.19;;;16.90;60.93
68107;BME280;54892;47.488;19.026;2023-08-07T05:29:49;99244.88;;;16.80;60.56
68107;BME280;54892;47.488;19.026;2023-08-07T05:32:55;99250.03;;;16.77;60.67
68107;BME280;54892;47.488;19.026;2023-08-07T05:35:59;99281.09;;;16.81;60.79
68107;BME280;54892;47.488;19.026;2023-08-07T05:39:02;99268.38;;;16.78;60.67
68107;BME280;54892;47.488;19.026;2023-08-07T05:42:07;99278.88;;;16.92;60.32
68107;BME280;54892;47.488;19.026;2023-08-07T05:45:13;99278.28;;;16.95;60.62
68107;BME280;54892;47.488;19.026;2023-08-07T05:48:16;99296.78;;;17.09;59.87
68107;BME280;54892;47.488;19.026;2023-08-07T05:51:19;99297.88;;;17.08;60.15
68107;BME280;54892;47.488;19.026;2023-08-07T05:54:23;99298.63;;;17.17;58.04
68107;BME280;54892;47.488;19.026;2023-08-07T05:57:26;99304.56;;;17.23;59.18
68107;BME280;54892;47.488;19.026;2023-08-07T06:00:32;99299.19;;;17.41;58.75
68107;BME280;54892;47.488;19.026;2023-08-07T06:03:36;99323.06;;;17.46;58.92
68107;BME280;54892;47.488;19.026;2023-08-07T06:06:39;99326.47;;;17.55;57.83
68107;BME280;54892;47.488;19.026;2023-08-07T06:09:44;99338.44;;;17.49;57.40
68107;BME280;54892;47.488;19.026;2023-08-07T06:12:48;99333.69;;;17.63;57.38
68107;BME280;54892;47.488;19.026;2023-08-07T06:15:53;99340.25;;;17.66;56.27
68107;BME280;54892;47.488;19.026;2023-08-07T06:18:57;99348.56;;;17.73;56.71
68107;BME280;54892;47.488;19.026;2023-08-07T06:22:01;99345.22;;;17.85;57.06
68107;BME280;54892;47.488;19.026;2023-08-07T06:25:05;99348.59;;;18.12;55.69
68107;BME280;54892;47.488;19.026;2023-08-07T06:28:09;99358.97;;;18.14;55.30
68107;BME280;54892;47.488;19.026;2023-08-07T06:31:15;99363.97;;;18.15;55.52
68107;BME280;54892;47.488;19.026;2023-08-07T06:34:18;99352.87;;;18.04;55.72
68107;BME280;54892;47.488;19.026;2023-08-07T06:37:22;99362.31;;;17.93;55.45
68107;BME280;54892;47.488;19.026;2023-08-07T06:40:26;99373.66;;;17.81;55.38
68107;BME280;54892;47.488;19.026;2023-08-07T06:43:29;99363.50;;;17.74;55.62
68107;BME280;54892;47.488;19.026;2023-08-07T06:46:33;99369.78;;;17.61;56.19
68107;BME280;54892;47.488;19.026;2023-08-07T06:49:36;99375.44;;;17.59;55.47
68107;BME280;54892;47.488;19.026;2023-08-07T06:52:40;99364.44;;;17.61;56.21
68107;BME280;54892;47.488;19.026;2023-08-07T06:55:44;99376.06;;;17.65;54.69
68107;BME280;54892;47.488;19.026;2023-08-07T06:58:48;99367.44;;;17.59;55.56
68107;BME280;54892;47.488;19.026;2023-08-07T07:01:52;99374.19;;;17.65;55.91
68107;BME280;54892;47.488;19.026;2023-08-07T07:04:56;99376.66;;;17.71;55.69
68107;BME280;54892;47.488;19.026;2023-08-07T07:08:00;99376.03;;;17.74;55.51
68107;BME280;54892;47.488;19.026;2023-08-07T07:11:04;99373.34;;;17.83;54.77
68107;BME280;54892;47.488;19.026;2023-08-07T07:14:07;99376.47;;;17.85;54.94
68107;BME280;54892;47.488;19.026;2023-08-07T07:17:12;99373.44;;;17.95;54.26
68107;BME280;54892;47.488;19.026;2023-08-07T07:20:16;99381.78;;;18.02;54.34
68107;BME280;54892;47.488;19.026;2023-08-07T07:23:20;99380.50;;;18.08;54.77
68107;BME280;54892;47.488;19.026;2023-08-07T07:26:24;99374.47;;;18.20;55.17
68107;BME280;54892;47.488;19.026;2023-08-07T07:29:27;99380.72;;;18.33;55.00
68107;BME280;54892;47.488;19.026;2023-08-07T07:32:32;99381.91;;;18.45;55.10
68107;BME280;54892;47.488;19.026;2023-08-07T07:35:37;99374.44;;;18.59;53.93
68107;BME280;54892;47.488;19.026;2023-08-07T07:38:41;99380.22;;;18.61;54.43
68107;BME280;54892;47.488;19.026;2023-08-07T07:41:45;99385.06;;;18.68;53.65
68107;BME280;54892;47.488;19.026;2023-08-07T07:44:49;99390.72;;;18.96;53.76
68107;BME280;54892;47.488;19.026;2023-08-07T07:47:54;99393.19;;;19.90;51.79
68107;BME280;54892;47.488;19.026;2023-08-07T07:50:58;99399.84;;;21.24;47.04
68107;BME280;54892;47.488;19.026;2023-08-07T07:54:02;99408.81;;;22.53;44.79
68107;BME280;54892;47.488;19.026;2023-08-07T07:57:09;99413.50;;;22.40;44.83
68107;BME280;54892;47.488;19.026;2023-08-07T08:00:13;99399.72;;;21.77;45.82
68107;BME280;54892;47.488;19.026;2023-08-07T08:03:18;99419.97;;;21.30;45.85
68107;BME280;54892;47.488;19.026;2023-08-07T08:06:22;99422.53;;;20.73;46.12
68107;BME280;54892;47.488;19.026;2023-08-07T08:09:25;99416.31;;;20.81;46.90
68107;BME280;54892;47.488;19.026;2023-08-07T08:12:30;99437.31;;;20.67;47.22
68107;BME280;54892;47.488;19.026;2023-08-07T08:15:33;99436.41;;;20.63;47.74
68107;BME280;54892;47.488;19.026;2023-08-07T08:18:38;99445.13;;;20.47;46.92
68107;BME280;54892;47.488;19.026;2023-08-07T08:21:41;99444.13;;;20.27;47.75
68107;BME280;54892;47.488;19.026;2023-08-07T08:24:45;99430.37;;;20.29;47.14
68107;BME280;54892;47.488;19.026;2023-08-07T08:27:50;99448.22;;;20.12;47.88
68107;BME280;54892;47.488;19.026;2023-08-07T08:30:54;99444.63;;;19.96;48.63
68107;BME280;54892;47.488;19.026;2023-08-07T08:33:58;99448.00;;;20.05;49.13
68107;BME280;54892;47.488;19.026;2023-08-07T08:37:01;99444.03;;;20.23;48.59
68107;BME280;54892;47.488;19.026;2023-08-07T08:40:09;99457.63;;;20.43;47.27
68107;BME280;54892;47.488;19.026;2023-08-07T08:43:14;99465.00;;;20.46;47.21
68107;BME280;54892;47.488;19.026;2023-08-07T08:46:19;99463.00;;;20.31;47.43
68107;BME280;54892;47.488;19.026;2023-08-07T08:49:28;99491.16;;;20.37;47.47
68107;BME280;54892;47.488;19.026;2023-08-07T08:52:35;99464.09;;;20.05;47.33
68107;BME280;54892;47.488;19.026;2023-08-07T08:55:40;99475.59;;;19.84;48.26
68107;BME280;54892;47.488;19.026;2023-08-07T08:58:46;99491.50;;;19.68;49.04
68107;BME280;54892;47.488;19.026;2023-08-07T09:01:51;99495.50;;;19.62;48.77
68107;BME280;54892;47.488;19.026;2023-08-07T09:04:56;99504.53;;;19.36;49.59
68107;BME280;54892;47.488;19.026;2023-08-07T09:08:00;99488.81;;;19.47;49.28
68107;BME280;54892;47.488;19.026;2023-08-07T09:11:04;99497.81;;;19.63;49.20
68107;BME280;54892;47.488;19.026;2023-08-07T09:14:09;99491.69;;;19.63;48.92
68107;BME280;54892;47.488;19.026;2023-08-07T09:17:15;99481.69;;;19.72;48.89
68107;BME280;54892;47.488;19.026;2023-08-07T09:20:21;99494.88;;;19.77;48.97
68107;BME280;54892;47.488;19.026;2023-08-07T09:23:24;99497.97;;;19.88;48.41
68107;BME280;54892;47.488;19.026;2023-08-07T09:26:28;99499.22;;;20.03;49.12
68107;BME280;54892;47.488;19.026;2023-08-07T09:29:31;99492.16;;;20.45;47.92
68107;BME280;54892;47.488;19.026;2023-08-07T09:32:35;99492.06;;;20.66;46.77
68107;BME280;54892;47.488;19.026;2023-08-07T09:35:41;99501.44;;;20.72;46.36
68107;BME280;54892;47.488;19.026;2023-08-07T09:38:49;99501.22;;;20.65;48.48
68107;BME280;54892;47.488;19.026;2023-08-07T09:41:53;99501.22;;;20.52;46.25
68107;BME280;54892;47.488;19.026;2023-08-07T09:44:56;99506.69;;;20.56;46.72
68107;BME280;54892;47.488;19.026;2023-08-07T09:48:00;99508.16;;;20.66;47.40
68107;BME280;54892;47.488;19.026;2023-08-07T09:51:05;99522.44;;;20.58;46.05
68107;BME280;54892;47.488;19.026;2023-08-07T09:54:08;99538.25;;;20.26;47.36
68107;BME280;54892;47.488;19.026;2023-08-07T09:57:12;99535.97;;;20.03;47.90
68107;BME280;54892;47.488;19.026;2023-08-07T10:00:17;99530.19;;;20.26;47.91
68107;BME280;54892;47.488;19.026;2023-08-07T10:03:22;99530.47;;;20.45;47.47
68107;BME280;54892;47.488;19.026;2023-08-07T10:06:28;99523.22;;;20.58;47.47
68107;BME280;54892;47.488;19.026;2023-08-07T10:09:32;99551.47;;;20.56;47.28
68107;BME280;54892;47.488;19.026;2023-08-07T10:12:36;99521.31;;;20.46;46.80
68107;BME280;54892;47.488;19.026;2023-08-07T10:15:40;99543.66;;;20.04;46.72
68107;BME280;54892;47.488;19.026;2023-08-07T10:18:44;99537.97;;;20.06;47.56
68107;BME280;54892;47.488;19.026;2023-08-07T10:21:49;99529.50;;;20.16;46.91
68107;BME280;54892;47.488;19.026;2023-08-07T10:24:54;99563.38;;;20.33;45.44
68107;BME280;54892;47.488;19.026;2023-08-07T10:28:00;99548.25;;;20.04;46.48
68107;BME280;54892;47.488;19.026;2023-08-07T10:31:06;99563.41;;;20.00;47.18
68107;BME280;54892;47.488;19.026;2023-08-07T10:34:10;99556.25;;;19.91;46.96
68107;BME280;54892;47.488;19.026;2023-08-07T10:37:32;99545.63;;;19.95;46.61
68107;BME280;54892;47.488;19.026;2023-08-07T10:40:58;99552.75;;;20.24;46.47
68107;BME280;54892;47.488;19.026;2023-08-07T10:44:02;99561.78;;;20.20;46.29
68107;BME280;54892;47.488;19.026;2023-08-07T10:47:06;99554.16;;;20.10;47.16
68107;BME280;54892;47.488;19.026;2023-08-07T10:50:10;99557.78;;;20.26;47.16
68107;BME280;54892;47.488;19.026;2023-08-07T10:53:20;99560.63;;;20.08;47.79
68107;BME280;54892;47.488;19.026;2023-08-07T10:56:32;99558.69;;;19.75;48.44
68107;BME280;54892;47.488;19.026;2023-08-07T10:59:37;99568.63;;;19.75;49.10
68107;BME280;54892;47.488;19.026;2023-08-07T11:02:42;99565.16;;;19.74;49.32
68107;BME280;54892;47.488;19.026;2023-08-07T11:05:45;99572.34;;;19.61;50.22
68107;BME280;54892;47.488;19.026;2023-08-07T11:08:50;99572.25;;;19.49;51.16
68107;BME280;54892;47.488;19.026;2023-08-07T11:11:54;99580.75;;;19.51;51.17
68107;BME280;54892;47.488;19.026;2023-08-07T11:14:58;99576.63;;;19.32;51.60
68107;BME280;54892;47.488;19.026;2023-08-07T11:18:01;99580.88;;;19.33;51.49
68107;BME280;54892;47.488;19.026;2023-08-07T11:21:05;99577.09;;;19.35;52.15
68107;BME280;54892;47.488;19.026;2023-08-07T11:24:12;99572.06;;;19.54;51.61
68107;BME280;54892;47.488;19.026;2023-08-07T11:27:16;99572.00;;;19.63;52.16
68107;BME280;54892;47.488;19.026;2023-08-07T11:30:19;99579.78;;;19.56;52.72
68107;BME280;54892;47.488;19.026;2023-08-07T11:33:23;99577.50;;;19.45;51.96
68107;BME280;54892;47.488;19.026;2023-08-07T11:36:27;99597.87;;;19.29;51.02
68107;BME280;54892;47.488;19.026;2023-08-07T11:39:31;99595.06;;;18.95;51.43
68107;BME280;54892;47.488;19.026;2023-08-07T11:42:35;99628.28;;;18.94;52.07
68107;BME280;54892;47.488;19.026;2023-08-07T11:45:39;99610.53;;;18.72;52.21
68107;BME280;54892;47.488;19.026;2023-08-07T11:48:43;99593.94;;;18.49;53.32
68107;BME280;54892;47.488;19.026;2023-08-07T11:51:47;99582.91;;;18.50;53.84
68107;BME280;54892;47.488;19.026;2023-08-07T11:54:54;99590.78;;;18.47;55.49
68107;BME280;54892;47.488;19.026;2023-08-07T11:57:58;99594.41;;;18.51;54.99
68107;BME280;54892;47.488;19.026;2023-08-07T12:01:03;99597.72;;;18.48;54.93
68107;BME280;54892;47.488;19.026;2023-08-07T12:04:10;99597.09;;;18.42;55.25
68107;BME280;54892;47.488;19.026;2023-08-07T12:07:17;99597.06;;;18.60;54.73
68107;BME280;54892;47.488;19.026;2023-08-07T12:10:23;99594.97;;;18.74;54.61
68107;BME280;54892;47.488;19.026;2023-08-07T12:13:26;99604.16;;;19.03;54.59
68107;BME280;54892;47.488;19.026;2023-08-07T12:16:33;99608.34;;;19.22;53.97
68107;BME280;54892;47.488;19.026;2023-08-07T12:19:37;99589.66;;;19.13;53.05
68107;BME280;54892;47.488;19.026;2023-08-07T12:22:42;99583.84;;;19.11;52.73
68107;BME280;54892;47.488;19.026;2023-08-07T12:25:47;99595.53;;;18.97;53.00
68107;BME280;54892;47.488;19.026;2023-08-07T12:28:52;99603.09;;;18.95;52.69
68107;BME280;54892;47.488;19.026;2023-08-07T12:31:55;99613.81;;;18.78;53.02
68107;BME280;54892;47.488;19.026;2023-08-07T12:35:01;99615.75;;;18.68;52.89
68107;BME280;54892;47.488;19.026;2023-08-07T12:38:07;99611.03;;;18.65;52.91
68107;BME280;54892;47.488;19.026;2023-08-07T12:41:12;99606.16;;;18.67;53.19
68107;BME280;54892;47.488;19.026;2023-08-07T12:44:19;99624.16;;;18.88;52.93
68107;BME280;54892;47.488;19.026;2023-08-07T12:47:22;99613.53;;;18.70;53.30
68107;BME280;54892;47.488;19.026;2023-08-07T12:50:26;99625.72;;;18.89;53.34
68107;BME280;54892;47.488;19.026;2023-08-07T12:53:29;99617.72;;;18.89;53.44
68107;BME280;54892;47.488;19.026;2023-08-07T12:56:35;99609.38;;;18.99;53.80
68107;BME280;54892;47.488;19.026;2023-08-07T12:59:38;99618.22;;;19.21;53.37
68107;BME280;54892;47.488;19.026;2023-08-07T13:02:43;99629.34;;;19.02;52.75
68107;BME280;54892;47.488;19.026;2023-08-07T13:05:46;99626.66;;;18.93;53.03
68107;BME280;54892;47.488;19.026;2023-08-07T13:08:50;99630.44;;;18.92;52.74
68107;BME280;54892;47.488;19.026;2023-08-07T13:11:55;99635.22;;;18.78;52.98
68107;BME280;54892;47.488;19.026;2023-08-07T13:14:58;99633.78;;;18.80;53.03
68107;BME280;54892;47.488;19.026;2023-08-07T13:18:01;99640.19;;;18.88;53.47
68107;BME280;54892;47.488;19.026;2023-08-07T13:21:05;99639.56;;;18.91;53.34
68107;BME280;54892;47.488;19.026;2023-08-07T13:24:08;99645.88;;;18.95;53.45
68107;BME280;54892;47.488;19.026;2023-08-07T13:27:13;99664.47;;;18.83;53.48
68107;BME280;54892;47.488;19.026;2023-08-07T13:30:16;99642.31;;;18.56;54.02
68107;BME280;54892;47.488;19.026;2023-08-07T13:33:20;99652.41;;;18.41;54.15
68107;BME280;54892;47.488;19.026;2023-08-07T13:36:24;99653.03;;;18.38;54.84
68107;BME280;54892;47.488;19.026;2023-08-07T13:39:28;99657.28;;;18.39;54.78
68107;BME280;54892;47.488;19.026;2023-08-07T13:42:33;99653.03;;;18.38;55.26
68107;BME280;54892;47.488;19.026;2023-08-07T13:45:36;99670.78;;;18.61;55.35
68107;BME280;54892;47.488;19.026;2023-08-07T13:48:42;99661.66;;;18.62;55.06
68107;BME280;54892;47.488;19.026;2023-08-07T13:51:48;99670.50;;;18.45;55.33
68107;BME280;54892;47.488;19.026;2023-08-07T13:54:52;99674.13;;;18.31;55.64
68107;BME280;54892;47.488;19.026;2023-08-07T13:57:59;99664.38;;;18.26;56.05
68107;BME280;54892;47.488;19.026;2023-08-07T14:01:06;99673.97;;;18.28;56.01
68107;BME280;54892;47.488;19.026;2023-08-07T14:04:10;99683.38;;;18.42;56.36
68107;BME280;54892;47.488;19.026;2023-08-07T14:07:15;99681.81;;;18.41;55.98
68107;BME280;54892;47.488;19.026;2023-08-07T14:10:20;99689.03;;;18.50;56.10
68107;BME280;54892;47.488;19.026;2023-08-07T14:13:27;99693.12;;;18.47;55.92
68107;BME280;54892;47.488;19.026;2023-08-07T14:16:32;99702.56;;;18.45;55.76
68107;BME280;54892;47.488;19.026;2023-08-07T14:19:38;99715.28;;;18.48;56.13
68107;BME280;54892;47.488;19.026;2023-08-07T14:22:41;99700.97;;;18.26;56.55
68107;BME280;54892;47.488;19.026;2023-08-07T14:25:45;99710.41;;;18.06;57.20
68107;BME280;54892;47.488;19.026;2023-08-07T14:28:51;99705.94;;;17.92;57.92
68107;BME280;54892;47.488;19.026;2023-08-07T14:31:55;99706.41;;;17.86;58.62
68107;BME280;54892;47.488;19.026;2023-08-07T14:34:58;99707.03;;;17.91;58.74
68107;BME280;54892;47.488;19.026;2023-08-07T14:38:02;99712.22;;;17.88;58.73
68107;BME280;54892;47.488;19.026;2023-08-07T14:41:05;99705.78;;;17.80;59.03
68107;BME280;54892;47.488;19.026;2023-08-07T14:44:10;99714.69;;;17.75;59.46
68107;BME280;54892;47.488;19.026;2023-08-07T14:47:13;99709.06;;;17.77;59.73
68107;BME280;54892;47.488;19.026;2023-08-07T14:50:17;99708.22;;;17.68;59.58
68107;BME280;54892;47.488;19.026;2023-08-07T14:53:21;99709.03;;;17.68;60.52
68107;BME280;54892;47.488;19.026;2023-08-07T14:56:25;99710.25;;;17.62;60.79
68107;BME280;54892;47.488;19.026;2023-08-07T14:59:30;99719.81;;;17.54;60.50
68107;BME280;54892;47.488;19.026;2023-08-07T15:02:33;99713.34;;;17.46;60.82
68107;BME280;54892;47.488;19.026;2023-08-07T15:05:37;99710.69;;;17.46;61.16
68107;BME280;54892;47.488;19.026;2023-08-07T15:08:40;99713.19;;;17.43;61.91
68107;BME280;54892;47.488;19.026;2023-08-07T15:11:44;99720.53;;;17.37;62.60
68107;BME280;54892;47.488;19.026;2023-08-07T15:14:49;99716.81;;;17.15;63.56
68107;BME280;54892;47.488;19.026;2023-08-07T15:17:54;99729.31;;;17.06;65.20
68107;BME280;54892;47.488;19.026;2023-08-07T15:20:58;99722.41;;;17.05;65.53
68107;BME280;54892;47.488;19.026;2023-08-07T15:24:02;99719.19;;;16.94;66.13
68107;BME280;54892;47.488;19.026;2023-08-07T15:27:06;99705.69;;;16.90;66.99
68107;BME280;54892;47.488;19.026;2023-08-07T15:30:12;99714.25;;;17.01;66.52
68107;BME280;54892;47.488;19.026;2023-08-07T15:33:16;99710.19;;;17.04;66.00
68107;BME280;54892;47.488;19.026;2023-08-07T15:36:20;99714.06;;;16.98;66.26
68107;BME280;54892;47.488;19.026;2023-08-07T15:39:25;99704.53;;;17.05;66.02
68107;BME280;54892;47.488;19.026;2023-08-07T15:42:29;99702.22;;;17.13;66.30
68107;BME280;54892;47.488;19.026;2023-08-07T15:45:34;99706.16;;;17.15;65.75
68107;BME280;54892;47.488;19.026;2023-08-07T15:48:39;99712.81;;;17.27;65.56
68107;BME280;54892;47.488;19.026;2023-08-07T15:51:43;99711.19;;;17.17;65.46
68107;BME280;54892;47.488;19.026;2023-08-07T15:54:47;99710.22;;;17.13;65.50
68107;BME280;54892;47.488;19.026;2023-08-07T15:57:52;99708.16;;;17.10;65.78
68107;BME280;54892;47.488;19.026;2023-08-07T16:00:57;99702.53;;;17.11;66.07
68107;BME280;54892;47.488;19.026;2023-08-07T16:04:00;99714.78;;;17.12;66.28